createdAt,value
2023-01-18T00:02:10.946Z,4.49
2023-01-18T00:04:39.794Z,4.51
2023-01-18T00:07:07.228Z,4.45
2023-01-18T00:09:34.674Z,4.13
2023-01-18T00:12:02.094Z,4.20
2023-01-18T00:14:29.582Z,4.29
2023-01-18T00:16:56.994Z,3.94
2023-01-18T00:19:24.417Z,3.85
2023-01-18T00:21:55.694Z,4.30
2023-01-18T00:24:23.781Z,4.38
2023-01-18T00:26:51.401Z,4.34
2023-01-18T00:29:19.184Z,4.39
2023-01-18T00:31:48.145Z,4.28
2023-01-18T00:34:15.758Z,4.32
2023-01-18T00:36:43.194Z,4.14
2023-01-18T00:39:12.916Z,4.01
2023-01-18T00:42:00.330Z,3.80
2023-01-18T00:44:26.794Z,3.85
2023-01-18T00:46:55.999Z,3.89
2023-01-18T00:49:24.755Z,3.78
2023-01-18T00:51:52.360Z,3.93
2023-01-18T00:54:21.113Z,3.65
2023-01-18T00:56:48.535Z,3.92
2023-01-18T00:59:15.928Z,3.95
2023-01-18T01:01:44.908Z,3.97
2023-01-18T01:04:29.934Z,4.13
2023-01-18T01:06:57.356Z,4.15
2023-01-18T01:09:27.923Z,4.17
2023-01-18T01:12:13.195Z,4.12
2023-01-18T01:15:00.482Z,3.70
2023-01-18T01:17:47.361Z,3.92
2023-01-18T01:20:32.554Z,4.03
2023-01-18T01:23:26.996Z,3.92
2023-01-18T01:26:07.649Z,3.78
2023-01-18T01:28:35.597Z,3.60
2023-01-18T01:31:04.216Z,3.70
2023-01-18T01:33:32.954Z,3.96
2023-01-18T01:36:02.094Z,3.92
2023-01-18T01:38:30.337Z,3.90
2023-01-18T01:41:01.363Z,3.88
2023-01-18T01:43:40.591Z,3.92
2023-01-18T01:46:18.602Z,4.08
2023-01-18T01:48:48.527Z,3.92
2023-01-18T01:51:17.743Z,3.89
2023-01-18T01:53:46.016Z,4.02
2023-01-18T01:56:14.877Z,4.05
2023-01-18T01:58:43.767Z,4.07
2023-01-18T02:01:11.218Z,3.98
2023-01-18T02:03:42.559Z,3.94
2023-01-18T02:06:16.355Z,3.69
2023-01-18T02:08:47.294Z,4.01
2023-01-18T02:11:16.169Z,3.90
2023-01-18T02:13:43.643Z,3.88
2023-01-18T02:16:19.558Z,3.84
2023-01-18T02:18:56.988Z,3.85
2023-01-18T02:21:32.296Z,3.94
2023-01-18T02:24:39.000Z,3.82
2023-01-18T02:27:14.477Z,3.89
2023-01-18T02:29:56.437Z,4.16
2023-01-18T02:32:37.487Z,4.04
2023-01-18T02:35:10.051Z,4.14
2023-01-18T02:37:45.450Z,4.08
2023-01-18T02:40:20.204Z,4.14
2023-01-18T02:43:07.263Z,4.03
2023-01-18T02:45:59.354Z,3.87
2023-01-18T02:48:34.118Z,4.01
2023-01-18T02:51:01.588Z,4.07
2023-01-18T02:53:29.189Z,4.06
2023-01-18T02:56:00.974Z,4.12
2023-01-18T02:58:32.455Z,4.09
2023-01-18T03:01:06.449Z,4.06
2023-01-18T03:03:35.463Z,4.02
2023-01-18T03:06:06.526Z,3.88
2023-01-18T03:08:39.549Z,3.83
2023-01-18T03:11:11.324Z,3.78
2023-01-18T03:13:51.033Z,3.88
2023-01-18T03:16:23.657Z,4.07
2023-01-18T03:19:01.718Z,3.91
2023-01-18T03:21:39.671Z,4.04
2023-01-18T03:24:08.684Z,4.11
2023-01-18T03:26:40.954Z,4.02
2023-01-18T03:29:27.140Z,4.16
2023-01-18T03:32:19.610Z,4.14
2023-01-18T03:34:53.627Z,4.11
2023-01-18T03:37:27.653Z,4.12
2023-01-18T03:39:59.144Z,4.12
2023-01-18T03:42:30.165Z,4.03
2023-01-18T03:45:05.819Z,4.13
2023-01-18T03:47:34.971Z,4.03
2023-01-18T03:50:02.583Z,4.05
2023-01-18T03:52:37.593Z,3.93
2023-01-18T03:55:11.768Z,4.13
2023-01-18T03:57:43.630Z,4.16
2023-01-18T04:00:13.310Z,4.26
2023-01-18T04:02:45.187Z,4.15
2023-01-18T04:05:13.175Z,3.97
2023-01-18T04:07:40.633Z,3.91
2023-01-18T04:10:09.346Z,4.05
2023-01-18T04:12:36.820Z,4.33
2023-01-18T04:15:04.930Z,4.39
2023-01-18T04:17:32.330Z,4.34
2023-01-18T04:20:01.082Z,4.40
2023-01-18T04:22:28.490Z,4.38
2023-01-18T04:24:55.929Z,4.31
2023-01-18T04:27:25.051Z,4.42
2023-01-18T04:29:52.747Z,4.36
2023-01-18T04:32:20.536Z,4.46
2023-01-18T04:34:47.945Z,4.55
2023-01-18T04:37:16.678Z,4.50
2023-01-18T04:39:44.111Z,4.35
2023-01-18T04:42:11.519Z,4.11
2023-01-18T04:44:38.973Z,4.19
2023-01-18T04:47:06.382Z,4.19
2023-01-18T04:49:33.999Z,4.24
2023-01-18T04:52:01.434Z,4.37
2023-01-18T04:54:30.483Z,4.35
2023-01-18T04:56:57.892Z,4.32
2023-01-18T04:59:25.331Z,4.34
2023-01-18T05:01:52.801Z,4.25
2023-01-18T05:04:20.602Z,4.31
2023-01-18T05:06:49.141Z,4.18
2023-01-18T05:09:16.632Z,4.25
2023-01-18T05:11:45.349Z,4.10
2023-01-18T05:14:12.758Z,4.01
2023-01-18T05:16:40.279Z,3.58
2023-01-18T05:19:07.816Z,3.76
2023-01-18T05:21:35.223Z,3.57
2023-01-18T05:24:02.649Z,3.22
2023-01-18T05:26:30.322Z,3.21
2023-01-18T05:28:59.339Z,3.47
2023-01-18T05:31:26.837Z,3.14
2023-01-18T05:33:54.318Z,3.60
2023-01-18T05:36:21.787Z,3.48
2023-01-18T05:38:49.166Z,3.52
2023-01-18T05:41:16.662Z,3.62
2023-01-18T05:43:44.129Z,3.40
2023-01-18T05:46:12.971Z,3.32
2023-01-18T05:48:40.434Z,3.30
2023-01-18T05:51:09.716Z,3.76
2023-01-18T05:53:37.142Z,2.94
2023-01-18T05:56:06.973Z,3.10
2023-01-18T05:58:35.313Z,3.14
2023-01-18T06:01:02.819Z,3.12
2023-01-18T06:03:31.563Z,3.25
2023-01-18T06:05:59.227Z,3.21
2023-01-18T06:08:26.646Z,3.53
2023-01-18T06:10:55.123Z,3.62
2023-01-18T06:13:22.634Z,3.46
2023-01-18T06:15:50.370Z,3.90
2023-01-18T06:18:17.758Z,3.96
2023-01-18T06:20:46.517Z,3.80
2023-01-18T06:23:13.907Z,3.73
2023-01-18T06:25:41.289Z,4.06
2023-01-18T06:28:08.691Z,3.49
2023-01-18T06:30:36.062Z,3.83
2023-01-18T06:33:06.815Z,3.97
2023-01-18T06:35:34.524Z,4.08
2023-01-18T06:38:04.643Z,2.76
2023-01-18T06:40:32.241Z,2.36
2023-01-18T06:43:00.332Z,2.77
2023-01-18T06:45:29.311Z,2.42
2023-01-18T06:47:57.189Z,2.65
2023-01-18T06:50:24.624Z,1.92
2023-01-18T06:52:52.062Z,2.25
2023-01-18T06:55:21.139Z,2.62
2023-01-18T06:57:48.721Z,3.28
2023-01-18T07:00:17.717Z,3.73
2023-01-18T07:02:45.158Z,3.85
2023-01-18T07:05:12.572Z,3.62
2023-01-18T07:07:40.008Z,2.88
2023-01-18T07:10:08.427Z,3.36
2023-01-18T07:12:37.175Z,3.75
2023-01-18T07:15:20.507Z,3.63
2023-01-18T07:17:50.401Z,2.28
2023-01-18T07:20:18.138Z,2.35
2023-01-18T07:22:45.631Z,3.22
2023-01-18T07:25:13.836Z,1.83
2023-01-18T07:27:43.568Z,1.92
2023-01-18T07:30:12.940Z,2.03
2023-01-18T07:32:40.471Z,2.92
2023-01-18T07:35:08.455Z,2.36
2023-01-18T07:37:36.537Z,2.55
2023-01-18T07:40:04.170Z,3.19
2023-01-18T07:42:31.545Z,2.40
2023-01-18T07:45:00.256Z,3.34
2023-01-18T07:47:27.730Z,2.27
2023-01-18T07:49:55.367Z,2.18
2023-01-18T07:52:22.758Z,2.74
2023-01-18T07:54:50.461Z,2.64
2023-01-18T07:57:17.859Z,2.73
2023-01-18T07:59:45.299Z,2.50
2023-01-18T08:02:14.500Z,2.80
2023-01-18T08:04:42.033Z,2.72
2023-01-18T08:07:10.538Z,3.35
2023-01-18T08:09:37.973Z,3.28
2023-01-18T08:12:07.848Z,2.49
2023-01-18T08:14:35.256Z,2.37
2023-01-18T08:17:02.728Z,2.40
2023-01-18T08:19:31.466Z,2.86
2023-01-18T08:21:58.915Z,2.33
2023-01-18T08:24:26.366Z,2.71
2023-01-18T08:26:53.746Z,2.67
2023-01-18T08:29:21.312Z,2.88
2023-01-18T08:31:52.354Z,2.41
2023-01-18T08:34:19.947Z,2.37
2023-01-18T08:36:50.962Z,2.50
2023-01-18T08:39:18.377Z,2.84
2023-01-18T08:41:46.698Z,3.65
2023-01-18T08:44:14.180Z,3.02
2023-01-18T08:46:41.636Z,3.59
2023-01-18T08:49:09.821Z,3.46
2023-01-18T08:51:37.376Z,4.35
2023-01-18T08:54:06.532Z,4.77
2023-01-18T08:56:33.970Z,4.03
2023-01-18T08:59:02.504Z,3.47
2023-01-18T09:01:30.114Z,3.00
2023-01-18T09:03:58.635Z,3.44
2023-01-18T09:06:31.813Z,4.23
2023-01-18T09:08:59.424Z,3.85
2023-01-18T09:11:28.273Z,3.60
2023-01-18T09:14:01.328Z,3.36
2023-01-18T09:16:30.114Z,3.47
2023-01-18T09:18:58.352Z,3.53
2023-01-18T09:21:27.880Z,3.89
2023-01-18T09:23:55.356Z,4.02
2023-01-18T09:26:22.761Z,3.70
2023-01-18T09:28:53.201Z,3.88
2023-01-18T09:31:22.246Z,3.30
2023-01-18T09:33:53.593Z,3.02
2023-01-18T09:36:26.277Z,3.62
2023-01-18T09:38:54.480Z,3.84
2023-01-18T09:41:31.013Z,3.37
2023-01-18T09:44:06.333Z,4.48
2023-01-18T09:46:36.471Z,4.47
2023-01-18T09:49:06.918Z,3.85
2023-01-18T09:51:44.439Z,4.08
2023-01-18T09:54:23.252Z,4.15
2023-01-18T09:56:58.317Z,4.69
2023-01-18T09:59:33.252Z,3.90
2023-01-18T10:02:03.993Z,4.49
2023-01-18T10:04:36.789Z,4.12
2023-01-18T10:07:08.199Z,4.54
2023-01-18T10:09:42.662Z,4.42
2023-01-18T10:12:18.780Z,4.10
2023-01-18T10:14:51.168Z,4.33
2023-01-18T10:17:22.889Z,4.41
2023-01-18T10:19:50.776Z,4.96
2023-01-18T10:22:22.843Z,4.80
2023-01-18T10:25:00.728Z,5.27
2023-01-18T10:27:40.519Z,5.59
2023-01-18T10:30:36.726Z,5.48
2023-01-18T10:33:17.661Z,5.97
2023-01-18T10:35:49.918Z,5.67
2023-01-18T10:38:21.451Z,5.65
2023-01-18T10:40:52.342Z,5.44
2023-01-18T10:43:25.104Z,5.59
2023-01-18T10:45:54.550Z,5.24
2023-01-18T10:48:28.996Z,5.44
2023-01-18T10:50:58.659Z,4.77
2023-01-18T10:53:30.954Z,4.56
2023-01-18T10:56:02.944Z,4.38
2023-01-18T10:58:33.755Z,4.72
2023-01-18T11:01:03.571Z,4.79
2023-01-18T11:03:37.625Z,5.15
2023-01-18T11:06:08.088Z,4.59
2023-01-18T11:08:36.901Z,4.31
2023-01-18T11:11:06.381Z,4.63
2023-01-18T11:13:42.137Z,4.60
2023-01-18T11:16:17.685Z,4.46
2023-01-18T11:18:59.439Z,4.74
2023-01-18T11:21:30.864Z,4.66
2023-01-18T11:23:59.230Z,4.37
2023-01-18T11:26:29.548Z,5.00
2023-01-18T11:29:00.865Z,5.36
2023-01-18T11:31:32.591Z,5.84
2023-01-18T11:34:03.000Z,5.03
2023-01-18T11:36:39.028Z,4.54
2023-01-18T11:39:29.514Z,4.58
2023-01-18T11:42:25.457Z,5.74
2023-01-18T11:45:13.378Z,5.20
2023-01-18T11:47:57.034Z,5.60
2023-01-18T11:50:31.429Z,5.59
2023-01-18T11:53:05.648Z,5.35
2023-01-18T11:55:37.869Z,5.45
2023-01-18T11:58:16.936Z,5.37
2023-01-18T12:00:54.610Z,5.12
2023-01-18T12:03:41.022Z,5.70
2023-01-18T12:06:15.533Z,5.33
2023-01-18T12:08:57.467Z,5.14
2023-01-18T12:11:38.344Z,4.91
2023-01-18T12:14:16.565Z,4.27
2023-01-18T12:16:59.885Z,4.18
2023-01-18T12:19:39.144Z,3.90
2023-01-18T12:22:26.884Z,4.35
2023-01-18T12:25:06.280Z,4.50
2023-01-18T12:27:41.187Z,4.28
2023-01-18T12:30:23.529Z,4.88
2023-01-18T12:33:06.688Z,5.41
2023-01-18T12:35:58.674Z,5.77
2023-01-18T12:38:29.270Z,5.40
2023-01-18T12:41:13.627Z,5.45
2023-01-18T12:43:52.287Z,5.77
2023-01-18T12:46:28.492Z,5.95
2023-01-18T12:48:58.883Z,5.91
2023-01-18T12:51:33.415Z,6.02
2023-01-18T12:54:04.587Z,5.80
2023-01-18T12:56:36.461Z,5.71
2023-01-18T12:59:08.062Z,5.80
2023-01-18T13:01:43.565Z,5.96
2023-01-18T13:04:17.913Z,5.66
2023-01-18T13:06:50.069Z,5.24
2023-01-18T13:09:27.606Z,5.22
2023-01-18T13:11:58.409Z,5.13
2023-01-18T13:14:33.501Z,4.40
2023-01-18T13:17:08.778Z,4.26
2023-01-18T13:19:42.917Z,4.78
2023-01-18T13:22:23.402Z,4.42
2023-01-18T13:25:08.896Z,4.27
2023-01-18T13:27:37.814Z,4.66
2023-01-18T13:30:16.661Z,4.86
2023-01-18T13:32:45.570Z,4.68
2023-01-18T13:35:21.016Z,4.42
2023-01-18T13:37:52.922Z,3.64
2023-01-18T13:40:38.616Z,3.68
2023-01-18T13:43:07.352Z,4.32
2023-01-18T13:46:03.049Z,3.94
2023-01-18T13:48:46.847Z,4.24
2023-01-18T13:51:52.851Z,4.20
2023-01-18T13:54:58.823Z,3.82
2023-01-18T13:57:26.761Z,3.85
2023-01-18T13:59:54.294Z,4.26
2023-01-18T14:02:27.608Z,4.31
2023-01-18T14:05:05.473Z,4.53
2023-01-18T14:07:41.337Z,4.90
2023-01-18T14:10:26.310Z,5.29
2023-01-18T14:12:55.624Z,5.38
2023-01-18T14:15:38.701Z,5.70
2023-01-18T14:18:17.767Z,5.55
2023-01-18T14:20:54.337Z,5.43
2023-01-18T14:23:53.698Z,5.47
2023-01-18T14:26:24.625Z,5.41
2023-01-18T14:28:56.820Z,5.31
2023-01-18T14:31:30.239Z,5.89
2023-01-18T14:33:57.727Z,5.72
2023-01-18T14:36:27.975Z,5.27
2023-01-18T14:39:12.776Z,5.51
2023-01-18T14:41:44.176Z,5.62
2023-01-18T14:44:18.612Z,5.25
2023-01-18T14:46:51.161Z,5.34
2023-01-18T14:49:24.844Z,5.50
2023-01-18T14:51:53.841Z,4.81
2023-01-18T14:54:24.279Z,5.15
2023-01-18T14:57:01.471Z,5.26
2023-01-18T14:59:31.130Z,5.31
2023-01-18T15:02:00.854Z,5.39
2023-01-18T15:04:29.910Z,5.37
2023-01-18T15:07:00.383Z,5.26
2023-01-18T15:09:31.510Z,5.09
2023-01-18T15:12:04.162Z,5.06
2023-01-18T15:14:34.388Z,5.12
2023-01-18T15:17:06.847Z,5.33
2023-01-18T15:19:39.529Z,4.89
2023-01-18T15:22:08.617Z,5.16
2023-01-18T15:24:39.555Z,5.03
2023-01-18T15:27:13.701Z,5.20
2023-01-18T15:29:41.160Z,4.99
2023-01-18T15:32:14.331Z,5.43
2023-01-18T15:34:45.922Z,5.55
2023-01-18T15:37:17.251Z,5.59
2023-01-18T15:39:56.626Z,5.65
2023-01-18T15:42:29.375Z,5.43
2023-01-18T15:44:59.357Z,5.57
2023-01-18T15:47:29.611Z,5.27
2023-01-18T15:49:59.787Z,5.39
2023-01-18T15:52:46.596Z,5.38
2023-01-18T15:55:23.983Z,5.28
2023-01-18T15:57:58.946Z,5.02
2023-01-18T16:00:34.694Z,5.12
2023-01-18T16:03:03.765Z,5.49
2023-01-18T16:05:32.683Z,5.62
2023-01-18T16:08:19.064Z,5.82
2023-01-18T16:10:54.802Z,5.58
2023-01-18T16:13:32.173Z,5.39
2023-01-18T16:16:16.339Z,5.75
2023-01-18T16:18:47.414Z,5.77
2023-01-18T16:21:22.003Z,5.33
2023-01-18T16:23:52.204Z,5.04
2023-01-18T16:26:23.186Z,5.26
2023-01-18T16:28:53.497Z,5.35
2023-01-18T16:31:24.606Z,5.25
2023-01-18T16:33:52.171Z,5.33
2023-01-18T16:36:21.091Z,4.90
2023-01-18T16:38:48.485Z,4.86
2023-01-18T16:41:16.972Z,4.62
2023-01-18T16:43:44.968Z,4.62
2023-01-18T16:46:13.832Z,4.86
2023-01-18T16:48:41.401Z,5.11
2023-01-18T16:51:16.002Z,5.19
2023-01-18T16:53:43.698Z,4.92
2023-01-18T16:56:15.675Z,4.73
2023-01-18T16:58:43.596Z,4.29
2023-01-18T17:01:15.927Z,4.33
2023-01-18T17:03:43.814Z,4.47
2023-01-18T17:06:17.750Z,4.34
2023-01-18T17:08:45.280Z,4.95
2023-01-18T17:11:13.448Z,4.79
2023-01-18T17:13:41.022Z,4.75
2023-01-18T17:16:14.782Z,4.89
2023-01-18T17:18:44.037Z,4.66
2023-01-18T17:21:12.533Z,4.53
2023-01-18T17:23:40.932Z,4.95
2023-01-18T17:26:08.767Z,5.02
2023-01-18T17:28:36.166Z,4.84
2023-01-18T17:31:03.764Z,5.07
2023-01-18T17:33:32.645Z,5.00
2023-01-18T17:36:01.438Z,4.47
2023-01-18T17:40:58.382Z,4.89
2023-01-18T17:43:33.687Z,4.92
2023-01-18T17:46:03.822Z,5.29
2023-01-18T17:48:31.353Z,5.08
2023-01-18T17:50:59.277Z,5.08
2023-01-18T17:53:28.169Z,4.76
2023-01-18T17:55:55.613Z,4.70
2023-01-18T17:58:23.416Z,4.97
2023-01-18T18:00:51.324Z,4.72
2023-01-18T18:03:20.124Z,4.75
2023-01-18T18:05:47.678Z,4.66
2023-01-18T18:08:15.213Z,4.69
2023-01-18T18:10:44.433Z,4.53
2023-01-18T18:13:11.882Z,4.72
2023-01-18T18:15:39.360Z,4.95
2023-01-18T18:18:12.271Z,4.89
2023-01-18T18:20:49.792Z,4.97
2023-01-18T18:23:17.173Z,4.98
2023-01-18T18:25:48.231Z,4.95
2023-01-18T18:28:15.653Z,4.89
2023-01-18T18:30:46.609Z,4.82
2023-01-18T18:33:13.988Z,4.99
2023-01-18T18:35:41.765Z,4.91
2023-01-18T18:38:10.034Z,4.97
2023-01-18T18:40:37.531Z,4.98
2023-01-18T18:43:06.629Z,4.88
2023-01-18T18:45:35.019Z,4.85
2023-01-18T18:48:02.533Z,4.79
2023-01-18T18:50:30.663Z,4.97
2023-01-18T18:52:59.267Z,4.86
2023-01-18T18:55:26.821Z,4.87
2023-01-18T18:57:54.296Z,4.63
2023-01-18T19:00:24.552Z,4.72
2023-01-18T19:02:52.269Z,4.67
2023-01-18T19:05:20.153Z,4.74
2023-01-18T19:07:51.122Z,4.85
2023-01-18T19:10:19.629Z,4.97
2023-01-18T19:12:47.105Z,5.03
2023-01-18T19:15:14.666Z,5.07
2023-01-18T19:17:43.388Z,4.93
2023-01-18T19:20:13.851Z,4.90
2023-01-18T19:22:41.485Z,4.91
2023-01-18T19:25:09.891Z,4.85
2023-01-18T19:27:37.276Z,4.91
2023-01-18T19:30:10.521Z,4.97
2023-01-18T19:32:37.927Z,4.93
2023-01-18T19:35:07.585Z,4.72
2023-01-18T19:37:35.045Z,4.75
2023-01-18T19:40:02.461Z,4.78
2023-01-18T19:42:30.023Z,4.83
2023-01-18T19:44:59.396Z,4.78
2023-01-18T19:47:26.950Z,4.79
2023-01-18T19:49:55.708Z,4.78
2023-01-18T19:52:25.119Z,4.63
2023-01-18T19:54:52.747Z,4.19
2023-01-18T19:57:20.146Z,4.21
2023-01-18T19:59:47.572Z,4.55
2023-01-18T20:02:15.126Z,4.53
2023-01-18T20:04:43.403Z,4.51
2023-01-18T20:07:12.769Z,4.64
2023-01-18T20:09:43.372Z,4.66
2023-01-18T20:12:12.478Z,4.50
2023-01-18T20:14:41.848Z,4.25
2023-01-18T20:17:09.981Z,4.26
2023-01-18T20:19:37.441Z,3.96
2023-01-18T20:22:04.902Z,3.88
2023-01-18T20:24:32.344Z,3.57
2023-01-18T20:27:14.994Z,3.97
2023-01-18T20:29:43.142Z,4.00
2023-01-18T20:32:16.026Z,3.98
2023-01-18T20:34:46.445Z,3.94
2023-01-18T20:37:14.627Z,3.75
2023-01-18T20:39:42.180Z,3.84
2023-01-18T20:42:11.037Z,3.72
2023-01-18T20:44:38.588Z,3.85
2023-01-18T20:47:06.368Z,3.64
2023-01-18T20:49:38.453Z,3.74
2023-01-18T20:52:06.614Z,3.77
2023-01-18T20:54:35.690Z,3.72
2023-01-18T20:57:03.887Z,3.77
2023-01-18T20:59:32.729Z,3.72
2023-01-18T21:02:00.401Z,3.69
2023-01-18T21:04:28.010Z,3.75
2023-01-18T21:06:57.163Z,3.73
2023-01-18T21:09:24.830Z,3.80
2023-01-18T21:11:52.244Z,3.70
2023-01-18T21:14:19.756Z,3.66
2023-01-18T21:16:48.841Z,3.38
2023-01-18T21:19:16.478Z,3.37
2023-01-18T21:21:44.626Z,3.61
2023-01-18T21:24:12.045Z,3.26
2023-01-18T21:26:39.608Z,3.38
2023-01-18T21:29:07.124Z,3.44
2023-01-18T21:31:34.591Z,3.58
2023-01-18T21:34:03.363Z,3.47
2023-01-18T21:36:30.956Z,3.40
2023-01-18T21:38:58.407Z,3.54
2023-01-18T21:41:43.371Z,3.38
2023-01-18T21:44:29.940Z,3.27
2023-01-18T21:46:58.715Z,3.19
2023-01-18T21:50:15.878Z,3.37
2023-01-18T21:52:50.355Z,3.35
2023-01-18T21:55:18.574Z,3.44
2023-01-18T21:58:05.968Z,3.52
2023-01-18T22:00:33.370Z,3.44
2023-01-18T22:03:00.755Z,3.25
2023-01-18T22:05:29.490Z,3.25
2023-01-18T22:07:57.029Z,3.41
2023-01-18T22:10:24.716Z,3.31
2023-01-18T22:12:52.224Z,3.31
2023-01-18T22:15:21.854Z,3.37
2023-01-18T22:17:49.414Z,3.51
2023-01-18T22:20:17.741Z,3.53
2023-01-18T22:22:46.475Z,3.54
2023-01-18T22:25:13.938Z,3.49
2023-01-18T22:27:41.402Z,3.55
2023-01-18T22:30:10.152Z,3.56
2023-01-18T22:32:37.615Z,3.44
2023-01-18T22:35:05.411Z,3.27
2023-01-18T22:37:32.849Z,3.27
2023-01-18T22:40:02.202Z,3.53
2023-01-18T22:42:30.098Z,3.46
2023-01-18T22:44:57.516Z,3.27
2023-01-18T22:47:24.958Z,3.25
2023-01-18T22:49:52.356Z,3.23
2023-01-18T22:52:19.755Z,3.39
2023-01-18T22:54:47.216Z,2.86
2023-01-18T22:57:16.027Z,3.23
2023-01-18T22:59:43.421Z,3.11
2023-01-18T23:02:10.847Z,2.91
2023-01-18T23:04:38.316Z,3.27
2023-01-18T23:07:05.737Z,3.38
2023-01-18T23:09:33.167Z,2.87
2023-01-18T23:12:00.600Z,3.33
2023-01-18T23:14:47.139Z,2.82
2023-01-18T23:17:31.984Z,2.36
2023-01-18T23:19:59.388Z,2.79
2023-01-18T23:22:27.389Z,2.87
2023-01-18T23:24:54.821Z,3.19
2023-01-18T23:27:22.261Z,3.25
2023-01-18T23:29:57.277Z,3.04
2023-01-18T23:32:27.955Z,3.06
2023-01-18T23:34:55.625Z,2.66
2023-01-18T23:37:23.511Z,2.59
2023-01-18T23:40:08.798Z,2.24
2023-01-18T23:42:53.439Z,2.87
2023-01-18T23:45:39.985Z,2.53
2023-01-18T23:48:26.958Z,3.61
2023-01-18T23:51:11.707Z,5.28
2023-01-18T23:53:56.519Z,4.51
2023-01-18T23:56:24.074Z,3.58
2023-01-18T23:58:51.495Z,3.47
